sensor_id;sensor_type;location;lat;lon;timestamp;P1;durP1;ratioP1;P2;durP2;ratioP2
16015;SDS011;8112;53.592;10.184;2022-08-21T00:01:19;6.87;;;2.30;;
16015;SDS011;8112;53.592;10.184;2022-08-21T00:06:26;2.63;;;2.40;;
16015;SDS011;8112;53.592;10.184;2022-08-21T00:11:28;3.77;;;2.17;;
16015;SDS011;8112;53.592;10.184;2022-08-21T00:16:30;3.13;;;2.07;;
16015;SDS011;8112;53.592;10.184;2022-08-21T00:21:33;3.07;;;2.00;;
16015;SDS011;8112;53.592;10.184;2022-08-21T00:26:35;3.13;;;2.10;;
16015;SDS011;8112;53.592;10.184;2022-08-21T00:31:37;2.67;;;2.20;;
16015;SDS011;8112;53.592;10.184;2022-08-21T00:36:40;2.87;;;2.10;;
16015;SDS011;8112;53.592;10.184;2022-08-21T00:41:42;2.63;;;2.30;;
16015;SDS011;8112;53.592;10.184;2022-08-21T00:46:44;2.60;;;1.93;;
16015;SDS011;8112;53.592;10.184;2022-08-21T00:51:48;4.80;;;2.67;;
16015;SDS011;8112;53.592;10.184;2022-08-21T00:57:00;2.30;;;2.10;;
16015;SDS011;8112;53.592;10.184;2022-08-21T01:02:08;3.07;;;2.37;;
16015;SDS011;8112;53.592;10.184;2022-08-21T01:07:12;2.80;;;2.20;;
16015;SDS011;8112;53.592;10.184;2022-08-21T01:12:15;2.87;;;2.10;;
16015;SDS011;8112;53.592;10.184;2022-08-21T01:17:17;6.33;;;2.60;;
16015;SDS011;8112;53.592;10.184;2022-08-21T01:22:23;4.37;;;2.70;;
16015;SDS011;8112;53.592;10.184;2022-08-21T01:27:25;3.70;;;2.27;;
16015;SDS011;8112;53.592;10.184;2022-08-21T01:32:27;3.27;;;2.30;;
16015;SDS011;8112;53.592;10.184;2022-08-21T01:37:30;3.43;;;2.07;;
16015;SDS011;8112;53.592;10.184;2022-08-21T01:42:44;2.57;;;2.30;;
16015;SDS011;8112;53.592;10.184;2022-08-21T01:47:47;2.40;;;2.20;;
16015;SDS011;8112;53.592;10.184;2022-08-21T01:52:50;4.03;;;2.63;;
16015;SDS011;8112;53.592;10.184;2022-08-21T01:57:52;3.37;;;2.10;;
16015;SDS011;8112;53.592;10.184;2022-08-21T02:02:54;2.73;;;2.00;;
16015;SDS011;8112;53.592;10.184;2022-08-21T02:07:57;3.00;;;2.37;;
16015;SDS011;8112;53.592;10.184;2022-08-21T02:12:59;3.87;;;2.50;;
16015;SDS011;8112;53.592;10.184;2022-08-21T02:18:02;2.97;;;2.67;;
16015;SDS011;8112;53.592;10.184;2022-08-21T02:23:08;3.83;;;3.03;;
16015;SDS011;8112;53.592;10.184;2022-08-21T02:28:12;4.73;;;2.97;;
16015;SDS011;8112;53.592;10.184;2022-08-21T02:33:15;3.33;;;2.30;;
16015;SDS011;8112;53.592;10.184;2022-08-21T02:38:21;3.00;;;2.47;;
16015;SDS011;8112;53.592;10.184;2022-08-21T02:43:35;5.40;;;2.90;;
16015;SDS011;8112;53.592;10.184;2022-08-21T02:48:37;3.40;;;2.50;;
16015;SDS011;8112;53.592;10.184;2022-08-21T02:53:42;4.00;;;2.33;;
16015;SDS011;8112;53.592;10.184;2022-08-21T02:58:45;2.97;;;2.20;;
16015;SDS011;8112;53.592;10.184;2022-08-21T03:03:49;3.80;;;2.77;;
16015;SDS011;8112;53.592;10.184;2022-08-21T03:08:52;3.13;;;2.70;;
16015;SDS011;8112;53.592;10.184;2022-08-21T03:13:54;3.40;;;2.60;;
16015;SDS011;8112;53.592;10.184;2022-08-21T03:18:56;3.97;;;2.80;;
16015;SDS011;8112;53.592;10.184;2022-08-21T03:23:59;3.20;;;2.83;;
16015;SDS011;8112;53.592;10.184;2022-08-21T03:29:12;3.03;;;2.73;;
16015;SDS011;8112;53.592;10.184;2022-08-21T03:34:14;3.87;;;3.07;;
16015;SDS011;8112;53.592;10.184;2022-08-21T03:39:17;3.83;;;2.90;;
16015;SDS011;8112;53.592;10.184;2022-08-21T03:44:19;4.43;;;3.27;;
16015;SDS011;8112;53.592;10.184;2022-08-21T03:49:21;5.07;;;3.17;;
16015;SDS011;8112;53.592;10.184;2022-08-21T03:54:24;5.83;;;3.30;;
16015;SDS011;8112;53.592;10.184;2022-08-21T03:59:26;4.10;;;3.50;;
16015;SDS011;8112;53.592;10.184;2022-08-21T04:04:28;4.10;;;3.13;;
16015;SDS011;8112;53.592;10.184;2022-08-21T04:09:34;3.10;;;2.53;;
16015;SDS011;8112;53.592;10.184;2022-08-21T04:14:36;5.20;;;3.40;;
16015;SDS011;8112;53.592;10.184;2022-08-21T04:19:38;5.07;;;3.30;;
16015;SDS011;8112;53.592;10.184;2022-08-21T04:24:47;3.53;;;3.13;;
16015;SDS011;8112;53.592;10.184;2022-08-21T04:29:52;2.77;;;2.47;;
16015;SDS011;8112;53.592;10.184;2022-08-21T04:35:01;3.47;;;3.00;;
16015;SDS011;8112;53.592;10.184;2022-08-21T04:40:11;3.33;;;2.93;;
16015;SDS011;8112;53.592;10.184;2022-08-21T04:45:18;4.73;;;3.20;;
16015;SDS011;8112;53.592;10.184;2022-08-21T04:50:23;3.40;;;3.07;;
16015;SDS011;8112;53.592;10.184;2022-08-21T04:55:38;3.67;;;3.10;;
16015;SDS011;8112;53.592;10.184;2022-08-21T05:00:41;5.57;;;3.40;;
16015;SDS011;8112;53.592;10.184;2022-08-21T05:05:43;4.30;;;3.53;;
16015;SDS011;8112;53.592;10.184;2022-08-21T05:10:46;4.87;;;3.27;;
16015;SDS011;8112;53.592;10.184;2022-08-21T05:15:49;6.30;;;4.10;;
16015;SDS011;8112;53.592;10.184;2022-08-21T05:20:54;5.07;;;3.20;;
16015;SDS011;8112;53.592;10.184;2022-08-21T05:26:04;3.73;;;3.23;;
16015;SDS011;8112;53.592;10.184;2022-08-21T05:31:06;6.10;;;3.87;;
16015;SDS011;8112;53.592;10.184;2022-08-21T05:36:08;3.67;;;3.30;;
16015;SDS011;8112;53.592;10.184;2022-08-21T05:41:11;3.63;;;3.30;;
16015;SDS011;8112;53.592;10.184;2022-08-21T05:46:13;5.43;;;3.43;;
16015;SDS011;8112;53.592;10.184;2022-08-21T05:51:15;3.63;;;2.90;;
16015;SDS011;8112;53.592;10.184;2022-08-21T05:56:19;4.30;;;3.23;;
16015;SDS011;8112;53.592;10.184;2022-08-21T06:01:21;4.20;;;3.13;;
16015;SDS011;8112;53.592;10.184;2022-08-21T06:06:23;3.63;;;3.07;;
16015;SDS011;8112;53.592;10.184;2022-08-21T06:11:26;5.80;;;3.20;;
16015;SDS011;8112;53.592;10.184;2022-08-21T06:16:30;3.43;;;2.93;;
16015;SDS011;8112;53.592;10.184;2022-08-21T06:21:35;3.80;;;2.93;;
16015;SDS011;8112;53.592;10.184;2022-08-21T06:26:38;4.70;;;3.03;;
16015;SDS011;8112;53.592;10.184;2022-08-21T06:31:40;4.03;;;2.90;;
16015;SDS011;8112;53.592;10.184;2022-08-21T06:36:42;4.30;;;2.83;;
16015;SDS011;8112;53.592;10.184;2022-08-21T06:41:45;4.60;;;3.07;;
16015;SDS011;8112;53.592;10.184;2022-08-21T06:46:48;3.77;;;3.13;;
16015;SDS011;8112;53.592;10.184;2022-08-21T06:51:51;3.43;;;2.90;;
16015;SDS011;8112;53.592;10.184;2022-08-21T06:56:56;5.03;;;2.87;;
16015;SDS011;8112;53.592;10.184;2022-08-21T07:01:58;3.70;;;2.93;;
16015;SDS011;8112;53.592;10.184;2022-08-21T07:07:01;3.80;;;2.70;;
16015;SDS011;8112;53.592;10.184;2022-08-21T07:12:05;2.87;;;2.53;;
16015;SDS011;8112;53.592;10.184;2022-08-21T07:17:07;5.43;;;2.30;;
16015;SDS011;8112;53.592;10.184;2022-08-21T07:22:08;3.33;;;1.80;;
16015;SDS011;8112;53.592;10.184;2022-08-21T07:27:12;2.30;;;1.70;;
16015;SDS011;8112;53.592;10.184;2022-08-21T07:32:14;2.40;;;1.70;;
16015;SDS011;8112;53.592;10.184;2022-08-21T07:37:19;3.90;;;1.77;;
16015;SDS011;8112;53.592;10.184;2022-08-21T07:42:22;3.43;;;1.70;;
16015;SDS011;8112;53.592;10.184;2022-08-21T07:47:24;3.53;;;1.60;;
16015;SDS011;8112;53.592;10.184;2022-08-21T07:52:25;2.83;;;1.50;;
16015;SDS011;8112;53.592;10.184;2022-08-21T07:57:29;4.67;;;1.90;;
16015;SDS011;8112;53.592;10.184;2022-08-21T08:02:33;3.37;;;1.33;;
16015;SDS011;8112;53.592;10.184;2022-08-21T08:07:35;3.97;;;1.40;;
16015;SDS011;8112;53.592;10.184;2022-08-21T08:12:40;4.67;;;1.60;;
16015;SDS011;8112;53.592;10.184;2022-08-21T08:17:43;4.17;;;1.60;;
16015;SDS011;8112;53.592;10.184;2022-08-21T08:22:44;2.67;;;1.53;;
16015;SDS011;8112;53.592;10.184;2022-08-21T08:27:48;4.33;;;1.50;;
16015;SDS011;8112;53.592;10.184;2022-08-21T08:32:50;4.33;;;1.50;;
16015;SDS011;8112;53.592;10.184;2022-08-21T08:37:51;3.00;;;1.40;;
16015;SDS011;8112;53.592;10.184;2022-08-21T08:42:54;2.63;;;1.40;;
16015;SDS011;8112;53.592;10.184;2022-08-21T08:47:58;2.30;;;1.50;;
16015;SDS011;8112;53.592;10.184;2022-08-21T08:53:04;3.33;;;1.53;;
16015;SDS011;8112;53.592;10.184;2022-08-21T08:58:09;2.10;;;1.50;;
16015;SDS011;8112;53.592;10.184;2022-08-21T09:03:17;3.27;;;1.73;;
16015;SDS011;8112;53.592;10.184;2022-08-21T09:08:30;4.53;;;1.80;;
16015;SDS011;8112;53.592;10.184;2022-08-21T09:13:48;3.30;;;1.60;;
16015;SDS011;8112;53.592;10.184;2022-08-21T09:18:59;3.60;;;1.77;;
16015;SDS011;8112;53.592;10.184;2022-08-21T09:24:13;5.13;;;2.10;;
16015;SDS011;8112;53.592;10.184;2022-08-21T09:29:25;3.60;;;1.73;;
16015;SDS011;8112;53.592;10.184;2022-08-21T09:34:31;4.00;;;1.97;;
16015;SDS011;8112;53.592;10.184;2022-08-21T09:39:38;5.33;;;1.90;;
16015;SDS011;8112;53.592;10.184;2022-08-21T09:44:42;5.57;;;1.93;;
16015;SDS011;8112;53.592;10.184;2022-08-21T09:49:44;3.03;;;1.73;;
16015;SDS011;8112;53.592;10.184;2022-08-21T09:54:46;6.65;;;2.10;;
16015;SDS011;8112;53.592;10.184;2022-08-21T09:59:55;4.57;;;1.77;;
16015;SDS011;8112;53.592;10.184;2022-08-21T10:04:59;6.13;;;2.28;;
16015;SDS011;8112;53.592;10.184;2022-08-21T10:10:03;2.78;;;2.03;;
16015;SDS011;8112;53.592;10.184;2022-08-21T10:15:10;4.68;;;2.08;;
16015;SDS011;8112;53.592;10.184;2022-08-21T10:20:21;4.60;;;2.43;;
16015;SDS011;8112;53.592;10.184;2022-08-21T10:25:28;4.28;;;2.13;;
16015;SDS011;8112;53.592;10.184;2022-08-21T10:30:39;10.00;;;2.80;;
16015;SDS011;8112;53.592;10.184;2022-08-21T10:35:49;5.85;;;2.55;;
16015;SDS011;8112;53.592;10.184;2022-08-21T10:40:57;5.18;;;2.38;;
16015;SDS011;8112;53.592;10.184;2022-08-21T10:46:11;5.88;;;2.25;;
16015;SDS011;8112;53.592;10.184;2022-08-21T10:51:23;6.22;;;2.30;;
16015;SDS011;8112;53.592;10.184;2022-08-21T10:56:35;4.90;;;2.35;;
16015;SDS011;8112;53.592;10.184;2022-08-21T11:01:42;6.00;;;2.38;;
16015;SDS011;8112;53.592;10.184;2022-08-21T11:06:48;4.35;;;2.30;;
16015;SDS011;8112;53.592;10.184;2022-08-21T11:12:02;4.82;;;1.83;;
16015;SDS011;8112;53.592;10.184;2022-08-21T11:17:11;6.95;;;2.20;;
16015;SDS011;8112;53.592;10.184;2022-08-21T11:22:16;4.45;;;2.22;;
16015;SDS011;8112;53.592;10.184;2022-08-21T11:27:32;4.35;;;2.03;;
16015;SDS011;8112;53.592;10.184;2022-08-21T11:38:14;7.22;;;2.28;;
16015;SDS011;8112;53.592;10.184;2022-08-21T11:43:24;3.55;;;1.60;;
16015;SDS011;8112;53.592;10.184;2022-08-21T11:48:38;4.15;;;1.77;;
16015;SDS011;8112;53.592;10.184;2022-08-21T11:53:46;2.53;;;1.52;;
16015;SDS011;8112;53.592;10.184;2022-08-21T11:58:55;3.55;;;1.88;;
16015;SDS011;8112;53.592;10.184;2022-08-21T12:04:03;2.05;;;1.40;;
16015;SDS011;8112;53.592;10.184;2022-08-21T12:09:09;2.15;;;1.27;;
16015;SDS011;8112;53.592;10.184;2022-08-21T12:14:35;1.95;;;1.20;;
16015;SDS011;8112;53.592;10.184;2022-08-21T12:19:40;3.92;;;1.90;;
16015;SDS011;8112;53.592;10.184;2022-08-21T12:24:42;2.53;;;1.73;;
16015;SDS011;8112;53.592;10.184;2022-08-21T12:29:47;4.30;;;1.88;;
16015;SDS011;8112;53.592;10.184;2022-08-21T12:34:52;4.68;;;1.90;;
16015;SDS011;8112;53.592;10.184;2022-08-21T12:39:59;2.90;;;1.38;;
16015;SDS011;8112;53.592;10.184;2022-08-21T12:45:04;3.13;;;1.42;;
16015;SDS011;8112;53.592;10.184;2022-08-21T12:50:19;3.30;;;1.38;;
16015;SDS011;8112;53.592;10.184;2022-08-21T12:55:26;3.28;;;1.50;;
16015;SDS011;8112;53.592;10.184;2022-08-21T13:00:30;3.13;;;1.55;;
16015;SDS011;8112;53.592;10.184;2022-08-21T13:05:33;3.42;;;1.27;;
16015;SDS011;8112;53.592;10.184;2022-08-21T13:10:37;2.35;;;1.48;;
16015;SDS011;8112;53.592;10.184;2022-08-21T13:15:42;2.60;;;1.13;;
16015;SDS011;8112;53.592;10.184;2022-08-21T13:20:45;2.95;;;1.52;;
16015;SDS011;8112;53.592;10.184;2022-08-21T13:25:47;1.73;;;1.10;;
16015;SDS011;8112;53.592;10.184;2022-08-21T13:30:50;2.40;;;1.17;;
16015;SDS011;8112;53.592;10.184;2022-08-21T13:36:00;3.15;;;1.58;;
16015;SDS011;8112;53.592;10.184;2022-08-21T13:41:06;3.53;;;1.30;;
16015;SDS011;8112;53.592;10.184;2022-08-21T13:46:13;2.90;;;1.27;;
16015;SDS011;8112;53.592;10.184;2022-08-21T13:51:17;3.07;;;1.33;;
16015;SDS011;8112;53.592;10.184;2022-08-21T13:56:23;2.90;;;1.33;;
16015;SDS011;8112;53.592;10.184;2022-08-21T14:01:27;2.03;;;1.25;;
16015;SDS011;8112;53.592;10.184;2022-08-21T14:06:34;2.80;;;1.20;;
16015;SDS011;8112;53.592;10.184;2022-08-21T14:11:40;2.77;;;0.80;;
16015;SDS011;8112;53.592;10.184;2022-08-21T14:16:44;2.38;;;1.10;;
16015;SDS011;8112;53.592;10.184;2022-08-21T14:21:51;1.97;;;1.00;;
16015;SDS011;8112;53.592;10.184;2022-08-21T14:27:01;1.80;;;1.10;;
16015;SDS011;8112;53.592;10.184;2022-08-21T14:32:09;2.10;;;1.10;;
16015;SDS011;8112;53.592;10.184;2022-08-21T14:37:15;3.33;;;1.20;;
16015;SDS011;8112;53.592;10.184;2022-08-21T14:42:16;2.67;;;1.23;;
16015;SDS011;8112;53.592;10.184;2022-08-21T14:47:19;1.13;;;0.90;;
16015;SDS011;8112;53.592;10.184;2022-08-21T14:52:23;2.40;;;1.00;;
16015;SDS011;8112;53.592;10.184;2022-08-21T14:57:30;1.50;;;1.10;;
16015;SDS011;8112;53.592;10.184;2022-08-21T15:02:32;2.90;;;0.80;;
16015;SDS011;8112;53.592;10.184;2022-08-21T15:07:35;2.80;;;1.20;;
16015;SDS011;8112;53.592;10.184;2022-08-21T15:12:38;2.77;;;1.30;;
16015;SDS011;8112;53.592;10.184;2022-08-21T15:17:40;3.67;;;1.20;;
16015;SDS011;8112;53.592;10.184;2022-08-21T15:22:43;1.37;;;1.00;;
16015;SDS011;8112;53.592;10.184;2022-08-21T15:27:45;2.50;;;1.20;;
16015;SDS011;8112;53.592;10.184;2022-08-21T15:32:47;2.13;;;0.90;;
16015;SDS011;8112;53.592;10.184;2022-08-21T15:37:50;2.67;;;1.17;;
16015;SDS011;8112;53.592;10.184;2022-08-21T15:42:53;1.90;;;1.13;;
16015;SDS011;8112;53.592;10.184;2022-08-21T15:48:00;2.67;;;1.00;;
16015;SDS011;8112;53.592;10.184;2022-08-21T15:53:03;2.77;;;1.10;;
16015;SDS011;8112;53.592;10.184;2022-08-21T15:58:06;3.37;;;0.77;;
16015;SDS011;8112;53.592;10.184;2022-08-21T16:03:08;2.25;;;1.13;;
16015;SDS011;8112;53.592;10.184;2022-08-21T16:08:15;2.47;;;1.00;;
16015;SDS011;8112;53.592;10.184;2022-08-21T16:13:18;3.60;;;1.30;;
16015;SDS011;8112;53.592;10.184;2022-08-21T16:18:24;1.63;;;0.90;;
16015;SDS011;8112;53.592;10.184;2022-08-21T16:23:28;2.42;;;1.25;;
16015;SDS011;8112;53.592;10.184;2022-08-21T16:28:30;3.97;;;1.20;;
16015;SDS011;8112;53.592;10.184;2022-08-21T16:33:36;1.83;;;1.03;;
16015;SDS011;8112;53.592;10.184;2022-08-21T16:38:42;2.33;;;1.30;;
16015;SDS011;8112;53.592;10.184;2022-08-21T16:43:44;3.53;;;1.10;;
16015;SDS011;8112;53.592;10.184;2022-08-21T16:48:47;1.90;;;0.80;;
16015;SDS011;8112;53.592;10.184;2022-08-21T16:53:50;2.20;;;1.20;;
16015;SDS011;8112;53.592;10.184;2022-08-21T16:58:53;3.03;;;1.20;;
16015;SDS011;8112;53.592;10.184;2022-08-21T17:03:56;1.63;;;1.03;;
16015;SDS011;8112;53.592;10.184;2022-08-21T17:09:00;2.07;;;1.40;;
16015;SDS011;8112;53.592;10.184;2022-08-21T17:14:03;1.47;;;0.90;;
16015;SDS011;8112;53.592;10.184;2022-08-21T17:19:10;2.83;;;1.20;;
16015;SDS011;8112;53.592;10.184;2022-08-21T17:24:14;4.43;;;1.40;;
16015;SDS011;8112;53.592;10.184;2022-08-21T17:29:19;2.57;;;1.10;;
16015;SDS011;8112;53.592;10.184;2022-08-21T17:34:29;1.43;;;1.07;;
16015;SDS011;8112;53.592;10.184;2022-08-21T17:39:34;1.90;;;1.03;;
16015;SDS011;8112;53.592;10.184;2022-08-21T17:44:36;3.00;;;1.43;;
16015;SDS011;8112;53.592;10.184;2022-08-21T17:49:40;1.53;;;1.13;;
16015;SDS011;8112;53.592;10.184;2022-08-21T17:54:43;3.07;;;1.80;;
16015;SDS011;8112;53.592;10.184;2022-08-21T17:59:45;2.20;;;1.30;;
16015;SDS011;8112;53.592;10.184;2022-08-21T18:04:47;2.13;;;1.10;;
16015;SDS011;8112;53.592;10.184;2022-08-21T18:09:51;2.90;;;1.60;;
16015;SDS011;8112;53.592;10.184;2022-08-21T18:14:54;3.17;;;1.50;;
16015;SDS011;8112;53.592;10.184;2022-08-21T18:19:56;3.07;;;1.37;;
16015;SDS011;8112;53.592;10.184;2022-08-21T18:25:00;4.27;;;1.90;;
16015;SDS011;8112;53.592;10.184;2022-08-21T18:30:02;3.90;;;1.60;;
16015;SDS011;8112;53.592;10.184;2022-08-21T18:35:07;4.10;;;1.40;;
16015;SDS011;8112;53.592;10.184;2022-08-21T18:40:12;4.20;;;1.87;;
16015;SDS011;8112;53.592;10.184;2022-08-21T18:45:15;5.27;;;1.90;;
16015;SDS011;8112;53.592;10.184;2022-08-21T18:50:23;5.53;;;2.53;;
16015;SDS011;8112;53.592;10.184;2022-08-21T18:55:30;3.40;;;1.63;;
16015;SDS011;8112;53.592;10.184;2022-08-21T19:00:34;5.60;;;2.17;;
16015;SDS011;8112;53.592;10.184;2022-08-21T19:05:42;2.40;;;1.87;;
16015;SDS011;8112;53.592;10.184;2022-08-21T19:10:46;3.07;;;1.97;;
16015;SDS011;8112;53.592;10.184;2022-08-21T19:15:51;4.70;;;1.70;;
16015;SDS011;8112;53.592;10.184;2022-08-21T19:20:54;4.93;;;2.30;;
16015;SDS011;8112;53.592;10.184;2022-08-21T19:26:00;5.73;;;2.47;;
16015;SDS011;8112;53.592;10.184;2022-08-21T19:31:08;6.50;;;2.63;;
16015;SDS011;8112;53.592;10.184;2022-08-21T19:36:13;3.97;;;2.40;;
16015;SDS011;8112;53.592;10.184;2022-08-21T19:41:27;6.07;;;3.00;;
16015;SDS011;8112;53.592;10.184;2022-08-21T19:46:32;3.50;;;2.50;;
16015;SDS011;8112;53.592;10.184;2022-08-21T19:51:36;3.70;;;2.20;;
16015;SDS011;8112;53.592;10.184;2022-08-21T19:56:40;5.87;;;2.33;;
16015;SDS011;8112;53.592;10.184;2022-08-21T20:01:45;4.33;;;2.37;;
16015;SDS011;8112;53.592;10.184;2022-08-21T20:06:48;5.17;;;2.60;;
16015;SDS011;8112;53.592;10.184;2022-08-21T20:11:52;5.20;;;2.60;;
16015;SDS011;8112;53.592;10.184;2022-08-21T20:16:58;5.30;;;2.20;;
16015;SDS011;8112;53.592;10.184;2022-08-21T20:22:04;4.03;;;2.33;;
16015;SDS011;8112;53.592;10.184;2022-08-21T20:27:22;8.10;;;2.83;;
16015;SDS011;8112;53.592;10.184;2022-08-21T20:32:30;6.80;;;2.53;;
16015;SDS011;8112;53.592;10.184;2022-08-21T20:37:32;3.80;;;2.30;;
16015;SDS011;8112;53.592;10.184;2022-08-21T20:42:38;3.73;;;2.23;;
16015;SDS011;8112;53.592;10.184;2022-08-21T20:47:48;7.23;;;2.63;;
16015;SDS011;8112;53.592;10.184;2022-08-21T20:53:11;5.53;;;2.83;;
16015;SDS011;8112;53.592;10.184;2022-08-21T20:58:20;5.83;;;2.67;;
16015;SDS011;8112;53.592;10.184;2022-08-21T21:03:34;3.73;;;2.30;;
16015;SDS011;8112;53.592;10.184;2022-08-21T21:08:42;5.77;;;2.67;;
16015;SDS011;8112;53.592;10.184;2022-08-21T21:13:52;8.00;;;3.80;;
16015;SDS011;8112;53.592;10.184;2022-08-21T21:18:59;4.80;;;2.63;;
16015;SDS011;8112;53.592;10.184;2022-08-21T21:24:04;6.63;;;4.30;;
16015;SDS011;8112;53.592;10.184;2022-08-21T21:29:16;4.60;;;2.87;;
16015;SDS011;8112;53.592;10.184;2022-08-21T21:34:25;6.27;;;3.40;;
16015;SDS011;8112;53.592;10.184;2022-08-21T21:39:33;5.27;;;2.80;;
16015;SDS011;8112;53.592;10.184;2022-08-21T21:44:50;4.73;;;2.67;;
16015;SDS011;8112;53.592;10.184;2022-08-21T21:50:08;5.97;;;3.13;;
16015;SDS011;8112;53.592;10.184;2022-08-21T21:55:35;4.50;;;3.00;;
16015;SDS011;8112;53.592;10.184;2022-08-21T22:00:53;6.23;;;2.80;;
16015;SDS011;8112;53.592;10.184;2022-08-21T22:06:08;5.23;;;2.37;;
16015;SDS011;8112;53.592;10.184;2022-08-21T22:11:16;4.43;;;2.33;;
16015;SDS011;8112;53.592;10.184;2022-08-21T22:16:31;5.53;;;2.60;;
16015;SDS011;8112;53.592;10.184;2022-08-21T22:21:35;4.60;;;2.97;;
16015;SDS011;8112;53.592;10.184;2022-08-21T22:26:42;5.20;;;2.57;;
16015;SDS011;8112;53.592;10.184;2022-08-21T22:32:04;5.77;;;2.63;;
16015;SDS011;8112;53.592;10.184;2022-08-21T22:37:08;3.57;;;2.37;;
16015;SDS011;8112;53.592;10.184;2022-08-21T22:42:19;6.10;;;3.17;;
16015;SDS011;8112;53.592;10.184;2022-08-21T22:47:28;3.97;;;2.50;;
16015;SDS011;8112;53.592;10.184;2022-08-21T22:52:34;4.80;;;2.83;;
16015;SDS011;8112;53.592;10.184;2022-08-21T22:57:46;6.57;;;2.97;;
16015;SDS011;8112;53.592;10.184;2022-08-21T23:02:55;4.67;;;3.00;;
16015;SDS011;8112;53.592;10.184;2022-08-21T23:08:12;5.27;;;2.67;;
16015;SDS011;8112;53.592;10.184;2022-08-21T23:13:19;3.43;;;2.60;;
16015;SDS011;8112;53.592;10.184;2022-08-21T23:18:26;6.53;;;2.60;;
16015;SDS011;8112;53.592;10.184;2022-08-21T23:23:41;5.50;;;2.87;;
16015;SDS011;8112;53.592;10.184;2022-08-21T23:29:04;6.90;;;2.53;;
16015;SDS011;8112;53.592;10.184;2022-08-21T23:34:21;4.20;;;2.37;;
16015;SDS011;8112;53.592;10.184;2022-08-21T23:39:35;5.37;;;2.40;;
16015;SDS011;8112;53.592;10.184;2022-08-21T23:44:49;7.07;;;2.93;;
16015;SDS011;8112;53.592;10.184;2022-08-21T23:50:04;5.80;;;3.00;;
